Time;durP1;ratioP1;P1;durP2;ratioP2;P2;SDS_P1;SDS_P2;PMS_P1;PMS_P2;Temp;Humidity;BMP_temperature;BMP_pressure;BME280_temperature;BME280_humidity;BME280_pressure;Samples;Min_cycle;Max_cycle;Signal;HPM_P1;HPM_P2
2022/09/08 00:00:01;;;;;;;;;;;;;;;15.34;89.50;95548.03;5093978;28;1036;-50
2022/09/08 00:02:27;;;;;;;;;;;;;;;15.26;89.86;95543.56;5075728;28;1827;-50
2022/09/08 00:04:53;;;;;;;;;;;;;;;15.16;89.19;95545.66;5093734;28;1165;-50
2022/09/08 00:07:19;;;;;;;;;;;;;;;15.15;89.01;95543.97;5093715;28;1056;-50
2022/09/08 00:09:45;;;;;;;;;;;;;;;15.13;88.88;95546.03;5093826;28;1910;-50
2022/09/08 00:12:12;;;;;;;;;;;;;;;14.94;89.75;95547.31;5093643;28;1059;-50
2022/09/08 00:14:38;;;;;;;;;;;;;;;14.78;91.38;95548.28;5093647;28;1048;-50
2022/09/08 00:17:04;;;;;;;;;;;;;;;14.82;91.79;95558.50;5093379;28;1092;-50
2022/09/08 00:19:30;;;;;;;;;;;;;;;14.91;91.44;95556.59;5093451;28;1037;-50
2022/09/08 00:21:56;;;;;;;;;;;;;;;15.02;90.80;95558.91;5093604;28;1020;-50
2022/09/08 00:24:23;;;;;;;;;;;;;;;15.09;90.30;95550.91;5093637;28;974;-50
2022/09/08 00:26:49;;;;;;;;;;;;;;;15.08;90.38;95551.09;5093249;28;1021;-50
2022/09/08 00:29:15;;;;;;;;;;;;;;;14.92;90.62;95554.75;5093271;28;1907;-50
2022/09/08 00:31:41;;;;;;;;;;;;;;;14.94;90.83;95550.84;5093292;28;1036;-50
2022/09/08 00:34:07;;;;;;;;;;;;;;;15.03;90.04;95551.66;5075492;28;1005;-50
2022/09/08 00:36:33;;;;;;;;;;;;;;;14.97;90.26;95549.69;5093375;28;1037;-50
2022/09/08 00:39:00;;;;;;;;;;;;;;;14.90;90.83;95551.41;5093353;28;1131;-50
2022/09/08 00:41:27;;;;;;;;;;;;;;;14.71;91.22;95542.75;5093102;28;1025;-50
2022/09/08 00:44:01;;;;;;;;;;;;;;;14.80;90.62;95559.72;5093592;28;1096;-50
2022/09/08 00:46:31;;;;;;;;;;;;;;;14.78;90.50;95559.03;5093090;28;1080;-50
2022/09/08 00:48:57;;;;;;;;;;;;;;;14.67;90.97;95562.13;5093177;28;1906;-50
2022/09/08 00:51:24;;;;;;;;;;;;;;;14.56;90.95;95566.03;5094012;28;1009;-50
2022/09/08 00:53:50;;;;;;;;;;;;;;;14.57;91.79;95568.56;5103973;28;1216;-50
2022/09/08 00:56:16;;;;;;;;;;;;;;;14.47;92.06;95567.06;5117510;28;1088;-49
2022/09/08 00:58:42;;;;;;;;;;;;;;;14.45;92.12;95569.94;5117609;28;1021;-50
2022/09/08 01:01:09;;;;;;;;;;;;;;;14.60;91.84;95568.19;5117599;28;1029;-50
2022/09/08 01:03:37;;;;;;;;;;;;;;;14.74;91.10;95565.78;5117219;28;994;-50
2022/09/08 01:06:12;;;;;;;;;;;;;;;14.76;90.81;95569.13;5117519;28;1040;-50
2022/09/08 01:14:43;;;;;;;;;;;;;;;14.38;92.19;95568.94;5117492;28;1008;-50
2022/09/08 01:17:21;;;;;;;;;;;;;;;14.48;92.32;95574.13;5117273;28;1043;-50
2022/09/08 01:19:47;;;;;;;;;;;;;;;14.57;92.14;95576.63;5117345;28;1008;-50
2022/09/08 01:22:13;;;;;;;;;;;;;;;14.70;91.26;95575.22;5116950;28;1005;-50
2022/09/08 01:24:39;;;;;;;;;;;;;;;14.73;91.16;95574.88;5117425;28;949;-50
2022/09/08 01:27:05;;;;;;;;;;;;;;;14.76;90.60;95575.38;5116941;28;1871;-50
2022/09/08 01:29:33;;;;;;;;;;;;;;;14.76;91.60;95574.50;5117101;28;1917;-50
2022/09/08 01:31:59;;;;;;;;;;;;;;;14.66;91.05;95576.59;5116962;28;954;-50
2022/09/08 01:34:25;;;;;;;;;;;;;;;14.40;90.90;95573.16;5116936;28;975;-50
2022/09/08 01:36:51;;;;;;;;;;;;;;;14.22;91.83;95572.53;5116770;28;1011;-50
2022/09/08 01:39:19;;;;;;;;;;;;;;;14.24;92.47;95568.66;5116828;28;1091;-50
2022/09/08 01:41:45;;;;;;;;;;;;;;;14.41;92.30;95566.75;5116748;28;1060;-50
2022/09/08 01:44:11;;;;;;;;;;;;;;;14.42;91.53;95559.53;5116668;28;1095;-50
2022/09/08 01:46:37;;;;;;;;;;;;;;;14.55;91.48;95559.81;5116797;28;1146;-50
2022/09/08 01:49:03;;;;;;;;;;;;;;;14.66;90.88;95565.81;5116527;28;1909;-49
2022/09/08 01:51:29;;;;;;;;;;;;;;;14.59;90.29;95565.72;5116569;28;973;-50
2022/09/08 01:53:55;;;;;;;;;;;;;;;14.47;90.86;95559.81;5108993;28;1216;-50
2022/09/08 01:56:21;;;;;;;;;;;;;;;14.25;91.29;95562.28;5096077;28;1048;-49
2022/09/08 01:58:47;;;;;;;;;;;;;;;14.10;92.36;95558.63;5096135;28;1030;-49
2022/09/08 02:01:13;;;;;;;;;;;;;;;14.03;92.29;95552.25;5096218;28;999;-49
2022/09/08 02:03:39;;;;;;;;;;;;;;;14.16;91.92;95557.09;5095197;28;974;-49
2022/09/08 02:06:05;;;;;;;;;;;;;;;14.08;92.01;95555.28;5095928;28;1084;-49
2022/09/08 02:08:31;;;;;;;;;;;;;;;14.04;91.90;95540.50;5095869;28;1991;-49
2022/09/08 02:10:58;;;;;;;;;;;;;;;13.98;92.12;95547.41;5096082;28;1005;-49
2022/09/08 02:13:25;;;;;;;;;;;;;;;13.89;92.19;95542.22;5095750;28;965;-49
2022/09/08 02:15:56;;;;;;;;;;;;;;;13.87;92.25;95539.72;5095896;28;980;-49
2022/09/08 02:18:22;;;;;;;;;;;;;;;13.90;92.61;95531.28;5095542;28;1037;-49
2022/09/08 02:20:48;;;;;;;;;;;;;;;14.04;92.42;95541.34;5095673;28;1020;-49
2022/09/08 02:23:14;;;;;;;;;;;;;;;14.09;91.44;95546.19;5095459;28;1092;-49
2022/09/08 02:25:40;;;;;;;;;;;;;;;14.20;92.04;95548.50;5095824;28;974;-49
2022/09/08 02:28:06;;;;;;;;;;;;;;;14.25;92.19;95548.81;5095363;28;1041;-50
2022/09/08 02:30:32;;;;;;;;;;;;;;;14.22;92.27;95551.84;5095496;28;1906;-49
2022/09/08 02:32:58;;;;;;;;;;;;;;;14.07;91.84;95556.28;5095347;28;1085;-50
2022/09/08 02:35:24;;;;;;;;;;;;;;;13.93;91.60;95557.84;5095284;28;1049;-49
2022/09/08 02:37:50;;;;;;;;;;;;;;;13.73;92.05;95559.22;5095475;28;966;-49
2022/09/08 02:40:16;;;;;;;;;;;;;;;13.64;93.00;95558.41;5095406;28;1094;-49
2022/09/08 02:42:44;;;;;;;;;;;;;;;13.67;93.40;95556.19;5095109;28;1041;-49
2022/09/08 02:45:10;;;;;;;;;;;;;;;13.90;92.91;95554.66;5095185;28;1088;-49
2022/09/08 02:47:36;;;;;;;;;;;;;;;14.02;92.22;95556.81;5094919;28;1045;-50
2022/09/08 02:50:02;;;;;;;;;;;;;;;14.06;92.08;95550.06;5094956;28;1985;-49
2022/09/08 02:52:31;;;;;;;;;;;;;;;14.14;91.92;95553.75;5094873;28;1021;-50
2022/09/08 02:54:57;;;;;;;;;;;;;;;14.24;90.74;95557.91;5111338;28;1165;-49
2022/09/08 02:57:24;;;;;;;;;;;;;;;14.17;89.80;95548.88;5115424;28;1057;-49
2022/09/08 02:59:50;;;;;;;;;;;;;;;13.96;90.80;95551.28;5115245;28;1036;-49
2022/09/08 03:02:16;;;;;;;;;;;;;;;13.94;91.75;95555.97;5115295;28;1012;-49
2022/09/08 03:04:42;;;;;;;;;;;;;;;13.91;91.73;95542.91;5115013;28;996;-50
2022/09/08 03:07:08;;;;;;;;;;;;;;;13.80;92.29;95554.84;5115175;28;1021;-49
2022/09/08 03:09:34;;;;;;;;;;;;;;;13.83;92.23;95562.56;5114824;28;1913;-50
2022/09/08 03:12:00;;;;;;;;;;;;;;;13.75;91.67;95558.03;5115226;28;1004;-49
2022/09/08 03:14:26;;;;;;;;;;;;;;;13.64;92.32;95561.94;5114581;28;1023;-50
2022/09/08 03:16:52;;;;;;;;;;;;;;;13.73;91.89;95559.22;5114391;28;966;-49
2022/09/08 03:19:18;;;;;;;;;;;;;;;13.87;91.89;95561.22;5114646;28;1100;-49
2022/09/08 03:21:44;;;;;;;;;;;;;;;13.80;92.30;95561.06;5114880;28;1011;-49
2022/09/08 03:24:10;;;;;;;;;;;;;;;13.76;92.09;95554.34;5114879;28;1059;-49
2022/09/08 03:26:37;;;;;;;;;;;;;;;13.70;92.18;95559.56;5114901;28;1185;-49
2022/09/08 03:29:03;;;;;;;;;;;;;;;13.58;92.66;95556.38;5114644;28;1906;-50
2022/09/08 03:31:29;;;;;;;;;;;;;;;13.69;92.38;95556.03;5114747;28;1040;-49
2022/09/08 03:33:55;;;;;;;;;;;;;;;13.70;92.09;95549.66;5114432;28;1048;-50
2022/09/08 03:36:21;;;;;;;;;;;;;;;13.69;91.74;95542.59;5114801;28;1044;-49
2022/09/08 03:38:47;;;;;;;;;;;;;;;13.56;92.26;95543.13;5114601;28;1065;-49
2022/09/08 03:41:14;;;;;;;;;;;;;;;13.51;93.02;95550.88;5114681;28;1052;-49
2022/09/08 03:43:44;;;;;;;;;;;;;;;13.60;92.63;95549.00;5114496;28;964;-49
2022/09/08 03:46:10;;;;;;;;;;;;;;;13.63;92.08;95549.50;5114325;28;1229;-49
2022/09/08 03:48:37;;;;;;;;;;;;;;;13.64;92.11;95555.72;5114569;28;1906;-49
2022/09/08 03:51:24;;;;;;;;;;;;;;;13.65;91.40;95557.38;5114571;28;1008;-49
2022/09/08 03:53:50;;;;;;;;;;;;;;;13.64;91.39;95556.56;5107396;28;1205;-50
2022/09/08 03:56:16;;;;;;;;;;;;;;;13.72;91.12;95553.00;5093902;28;1064;-49
2022/09/08 03:58:42;;;;;;;;;;;;;;;13.63;91.59;95559.41;5093804;28;1003;-49
2022/09/08 04:01:09;;;;;;;;;;;;;;;13.66;91.80;95559.09;5093802;28;1076;-50
2022/09/08 04:03:36;;;;;;;;;;;;;;;13.67;91.49;95555.38;5093801;28;1023;-50
2022/09/08 04:06:02;;;;;;;;;;;;;;;13.60;92.04;95559.75;5093969;28;1009;-49
2022/09/08 04:08:28;;;;;;;;;;;;;;;13.64;92.59;95561.09;5093426;28;1910;-49
2022/09/08 04:10:54;;;;;;;;;;;;;;;13.69;92.80;95557.88;5093758;28;958;-49
2022/09/08 04:13:20;;;;;;;;;;;;;;;13.79;92.45;95563.91;5093535;28;1149;-48
2022/09/08 04:15:46;;;;;;;;;;;;;;;13.75;91.66;95560.72;5093474;28;950;-49
2022/09/08 04:18:12;;;;;;;;;;;;;;;13.51;91.33;95556.25;5093819;28;1021;-49
2022/09/08 04:20:39;;;;;;;;;;;;;;;13.41;92.91;95560.94;5093757;28;986;-49
2022/09/08 04:23:05;;;;;;;;;;;;;;;13.56;94.11;95559.22;5093607;28;1040;-49
2022/09/08 04:25:32;;;;;;;;;;;;;;;13.79;93.89;95564.78;5093261;28;1115;-49
2022/09/08 04:27:58;;;;;;;;;;;;;;;13.92;93.18;95552.63;5093154;28;1104;-49
2022/09/08 04:30:24;;;;;;;;;;;;;;;13.82;91.78;95550.97;5093077;28;1914;-49
2022/09/08 04:32:50;;;;;;;;;;;;;;;13.71;92.83;95553.19;5093631;28;1319;-49
2022/09/08 04:35:16;;;;;;;;;;;;;;;13.89;92.60;95563.72;5093304;28;1020;-49
2022/09/08 04:37:42;;;;;;;;;;;;;;;14.01;92.82;95562.34;5093331;28;1079;-49
2022/09/08 04:40:08;;;;;;;;;;;;;;;14.04;93.54;95564.72;5093294;28;953;-50
2022/09/08 04:42:35;;;;;;;;;;;;;;;14.06;93.86;95566.19;5093359;28;1057;-49
2022/09/08 04:45:01;;;;;;;;;;;;;;;14.24;93.39;95567.81;5092952;28;1234;-50
2022/09/08 04:47:27;;;;;;;;;;;;;;;14.47;92.66;95567.06;5093433;28;970;-49
2022/09/08 04:49:53;;;;;;;;;;;;;;;14.63;92.68;95573.25;5093046;28;1906;-50
2022/09/08 04:52:25;;;;;;;;;;;;;;;14.56;92.98;95569.53;5093268;28;966;-50
2022/09/08 04:54:51;;;;;;;;;;;;;;;14.50;93.83;95572.94;5108546;28;1213;-49
2022/09/08 04:57:18;;;;;;;;;;;;;;;14.66;93.97;95571.22;5113481;28;1942;-50
2022/09/08 04:59:44;;;;;;;;;;;;;;;14.89;93.28;95582.88;5113307;28;1024;-49
2022/09/08 05:02:10;;;;;;;;;;;;;;;15.00;94.27;95590.53;5113547;28;1091;-49
2022/09/08 05:04:37;;;;;;;;;;;;;;;15.01;93.65;95588.69;5113188;28;1088;-49
2022/09/08 05:07:03;;;;;;;;;;;;;;;15.01;93.93;95591.38;5113636;28;1020;-49
2022/09/08 05:09:29;;;;;;;;;;;;;;;15.10;94.69;95584.94;5113213;28;1914;-49
2022/09/08 05:11:55;;;;;;;;;;;;;;;15.18;93.80;95589.41;5113544;28;1043;-50
2022/09/08 05:14:21;;;;;;;;;;;;;;;15.26;93.99;95591.22;5113125;28;1035;-49
2022/09/08 05:16:47;;;;;;;;;;;;;;;15.35;93.00;95596.34;5113634;28;1025;-49
2022/09/08 05:19:13;;;;;;;;;;;;;;;15.40;92.88;95598.50;5113519;28;1023;-49
2022/09/08 05:21:39;;;;;;;;;;;;;;;15.46;93.51;95599.63;5113443;28;1031;-49
2022/09/08 05:24:05;;;;;;;;;;;;;;;15.38;94.09;95601.38;5113461;28;1052;-50
2022/09/08 05:26:32;;;;;;;;;;;;;;;15.42;93.36;95599.16;5113502;28;914;-50
2022/09/08 05:28:58;;;;;;;;;;;;;;;15.69;91.87;95603.16;5113062;28;1906;-50
2022/09/08 05:31:25;;;;;;;;;;;;;;;15.86;91.02;95601.19;5113249;28;984;-50
2022/09/08 05:33:52;;;;;;;;;;;;;;;16.11;90.95;95604.47;5113195;28;1072;-49
2022/09/08 05:36:20;;;;;;;;;;;;;;;16.25;90.15;95597.41;5113142;28;953;-50
2022/09/08 05:38:46;;;;;;;;;;;;;;;16.31;89.43;95602.06;5114251;28;969;-52
2022/09/08 05:41:13;;;;;;;;;;;;;;;16.51;90.07;95609.63;5116700;28;1036;-49
2022/09/08 05:43:39;;;;;;;;;;;;;;;16.59;88.38;95604.94;5116712;28;1027;-49
2022/09/08 05:46:06;;;;;;;;;;;;;;;16.72;87.49;95614.25;5116545;28;1202;-50
2022/09/08 05:48:32;;;;;;;;;;;;;;;17.01;88.23;95616.09;5116754;28;2004;-52
2022/09/08 05:50:58;;;;;;;;;;;;;;;17.28;86.34;95614.53;5116555;28;1032;-50
2022/09/08 05:53:25;;;;;;;;;;;;;;;17.45;86.87;95611.56;5113277;28;1153;-50
2022/09/08 05:56:01;;;;;;;;;;;;;;;17.66;85.48;95610.72;5096050;28;1096;-50
2022/09/08 05:58:28;;;;;;;;;;;;;;;17.35;86.01;95615.44;5096100;28;1087;-50
2022/09/08 06:00:58;;;;;;;;;;;;;;;17.25;86.48;95608.69;5096157;28;958;-49
2022/09/08 06:03:24;;;;;;;;;;;;;;;17.17;87.16;95609.63;5095934;28;1225;-50
2022/09/08 06:05:50;;;;;;;;;;;;;;;17.09;87.40;95624.09;5095903;28;1060;-50
2022/09/08 06:08:16;;;;;;;;;;;;;;;17.16;87.68;95624.16;5095989;28;1068;-50
2022/09/08 06:10:42;;;;;;;;;;;;;;;17.23;88.65;95632.34;5095677;28;1977;-49
2022/09/08 06:13:08;;;;;;;;;;;;;;;17.18;88.67;95616.69;5096141;28;1000;-50
2022/09/08 06:15:35;;;;;;;;;;;;;;;17.25;87.46;95617.63;5095559;28;1032;-50
2022/09/08 06:18:01;;;;;;;;;;;;;;;17.30;88.04;95626.00;5095935;28;1021;-50
2022/09/08 06:20:28;;;;;;;;;;;;;;;17.25;88.18;95627.59;5095618;28;993;-50
2022/09/08 06:22:54;;;;;;;;;;;;;;;17.33;86.01;95622.91;5095788;28;1049;-49
2022/09/08 06:25:20;;;;;;;;;;;;;;;17.59;86.44;95623.38;5095425;28;1032;-50
2022/09/08 06:28:04;;;;;;;;;;;;;;;18.14;82.94;95617.22;5095829;28;1051;-49
2022/09/08 06:30:30;;;;;;;;;;;;;;;19.17;78.14;95618.41;5095360;28;1988;-50
2022/09/08 06:32:56;;;;;;;;;;;;;;;19.98;75.06;95620.28;5095615;28;1172;-50
2022/09/08 06:35:28;;;;;;;;;;;;;;;20.57;71.40;95622.09;5095301;28;1075;-50
2022/09/08 06:37:59;;;;;;;;;;;;;;;20.33;73.14;95612.72;5095308;28;1037;-50
2022/09/08 06:40:39;;;;;;;;;;;;;;;20.74;72.10;95617.06;5095377;28;961;-50
2022/09/08 06:43:11;;;;;;;;;;;;;;;22.48;65.85;95616.91;5095493;28;1044;-50
2022/09/08 06:45:40;;;;;;;;;;;;;;;22.01;66.61;95620.00;5094869;28;1262;-51
2022/09/08 06:48:09;;;;;;;;;;;;;;;20.82;70.84;95607.84;5095245;28;1059;-50
2022/09/08 06:50:38;;;;;;;;;;;;;;;22.38;67.61;95616.56;5094639;28;1910;-50
2022/09/08 06:53:08;;;;;;;;;;;;;;;26.43;53.29;95614.59;5095298;28;1150;-51
2022/09/08 06:55:40;;;;;;;;;;;;;;;29.53;44.15;95621.88;5115497;28;1056;-51
2022/09/08 06:58:10;;;;;;;;;;;;;;;31.25;39.73;95630.88;5115433;28;1021;-51
2022/09/08 07:00:41;;;;;;;;;;;;;;;29.44;41.77;95630.94;5115340;28;1217;-51
2022/09/08 07:03:07;;;;;;;;;;;;;;;30.88;39.72;95635.59;5115219;28;1064;-51
2022/09/08 07:05:39;;;;;;;;;;;;;;;31.58;39.30;95637.69;5115154;28;1044;-51
2022/09/08 07:08:28;;;;;;;;;;;;;;;30.84;39.50;95634.50;5115119;28;1100;-51
2022/09/08 07:10:57;;;;;;;;;;;;;;;30.55;40.89;95624.06;5076745;28;1910;-52
2022/09/08 07:13:23;;;;;;;;;;;;;;;30.90;39.74;95636.19;5114934;28;1036;-51
2022/09/08 07:16:01;;;;;;;;;;;;;;;31.73;39.49;95645.09;5114987;28;1083;-51
2022/09/08 07:18:43;;;;;;;;;;;;;;;32.68;37.78;95640.38;5114951;28;1009;-52
2022/09/08 07:21:29;;;;;;;;;;;;;;;33.49;35.54;95637.91;5114893;28;961;-52
2022/09/08 07:23:57;;;;;;;;;;;;;;;33.01;37.11;95640.63;5114914;28;1045;-51
2022/09/08 07:26:26;;;;;;;;;;;;;;;33.39;35.23;95644.41;5114829;28;964;-51
2022/09/08 07:28:54;;;;;;;;;;;;;;;33.54;35.68;95643.41;5114901;28;1983;-51
2022/09/08 07:31:21;;;;;;;;;;;;;;;32.95;35.14;95633.47;5114646;28;969;-50
2022/09/08 07:34:10;;;;;;;;;;;;;;;32.37;36.57;95635.06;5114810;28;972;-50
2022/09/08 07:36:54;;;;;;;;;;;;;;;30.90;39.65;95625.16;5114426;28;1064;-49
2022/09/08 07:39:24;;;;;;;;;;;;;;;29.50;42.39;95621.59;5114713;28;1052;-49
2022/09/08 07:41:54;;;;;;;;;;;;;;;27.92;46.35;95633.91;5114422;28;1005;-48
2022/09/08 07:44:20;;;;;;;;;;;;;;;27.21;49.82;95629.19;5114385;28;1230;-48
2022/09/08 07:46:52;;;;;;;;;;;;;;;26.56;52.18;95627.13;5114361;28;1040;-48
2022/09/08 07:49:24;;;;;;;;;;;;;;;26.31;51.66;95622.88;5114553;28;1988;-48
2022/09/08 07:51:58;;;;;;;;;;;;;;;25.68;52.12;95627.50;5114199;28;1048;-48
2022/09/08 07:54:26;;;;;;;;;;;;;;;25.24;53.01;95628.00;5102831;28;1253;-48
2022/09/08 07:57:04;;;;;;;;;;;;;;;25.22;56.33;95624.66;5093837;28;1005;-48
2022/09/08 07:59:42;;;;;;;;;;;;;;;25.09;56.81;95620.28;5093791;28;961;-48
2022/09/08 08:02:27;;;;;;;;;;;;;;;25.26;55.41;95614.09;5093359;28;1047;-49
2022/09/08 08:04:54;;;;;;;;;;;;;;;25.40;55.49;95620.09;5093935;28;974;-48
2022/09/08 08:07:52;;;;;;;;;;;;;;;25.28;56.50;95623.69;5093604;28;1022;-51
2022/09/08 08:10:24;;;;;;;;;;;;;;;25.30;55.87;95624.28;5038422;28;1902;-48
2022/09/08 08:13:00;;;;;;;;;;;;;;;25.40;55.73;95620.09;5093532;28;1088;-48
2022/09/08 08:15:26;;;;;;;;;;;;;;;25.35;55.63;95622.75;5093598;28;1079;-48
2022/09/08 08:17:58;;;;;;;;;;;;;;;25.07;57.57;95622.41;5093532;28;976;-48
2022/09/08 08:20:33;;;;;;;;;;;;;;;25.03;56.60;95614.94;5093465;28;1029;-48
2022/09/08 08:23:05;;;;;;;;;;;;;;;25.06;56.91;95618.03;5093616;28;1033;-48
2022/09/08 08:25:44;;;;;;;;;;;;;;;25.05;55.53;95607.31;5093427;28;1029;-48
2022/09/08 08:28:14;;;;;;;;;;;;;;;24.78;55.97;95610.59;5093351;28;1048;-48
2022/09/08 08:31:06;;;;;;;;;;;;;;;24.51;57.88;95601.97;5093390;28;2009;-48
2022/09/08 08:33:40;;;;;;;;;;;;;;;24.69;58.81;95598.34;5055015;28;1112;-48
2022/09/08 08:36:09;;;;;;;;;;;;;;;24.71;58.71;95588.81;5093458;28;1001;-48
2022/09/08 08:38:35;;;;;;;;;;;;;;;24.63;59.62;95594.66;5093220;28;961;-48
2022/09/08 08:41:06;;;;;;;;;;;;;;;24.46;58.41;95594.50;5093337;28;1053;-48
2022/09/08 08:43:38;;;;;;;;;;;;;;;24.36;60.67;95589.66;5093102;28;1010;-49
2022/09/08 08:46:16;;;;;;;;;;;;;;;24.41;61.25;95583.44;5093238;28;1223;-49
2022/09/08 08:48:42;;;;;;;;;;;;;;;24.46;60.51;95571.81;5093236;28;2256;-49
2022/09/08 08:51:08;;;;;;;;;;;;;;;24.54;58.53;95571.47;5093259;28;1037;-49
2022/09/08 08:53:43;;;;;;;;;;;;;;;24.69;63.70;95576.47;5097429;28;1069;-49
2022/09/08 08:56:28;;;;;;;;;;;;;;;24.55;61.32;95575.91;5113584;28;981;-49
2022/09/08 08:59:13;;;;;;;;;;;;;;;24.55;61.16;95573.16;5113432;28;1023;-49
2022/09/08 09:02:03;;;;;;;;;;;;;;;24.61;60.91;95558.53;5113618;28;1063;-49
2022/09/08 09:04:41;;;;;;;;;;;;;;;24.60;61.07;95553.31;5113273;28;1224;-49
2022/09/08 09:07:23;;;;;;;;;;;;;;;24.62;60.96;95542.94;5113717;28;1083;-49
2022/09/08 09:09:50;;;;;;;;;;;;;;;24.62;61.03;95548.41;5113323;28;1917;-49
2022/09/08 09:12:16;;;;;;;;;;;;;;;24.73;61.55;95542.94;5113452;28;984;-49
2022/09/08 09:14:48;;;;;;;;;;;;;;;24.87;61.09;95534.47;5115919;28;1041;-48
2022/09/08 09:17:23;;;;;;;;;;;;;;;24.97;60.23;95528.38;5117579;28;1025;-49
2022/09/08 09:19:52;;;;;;;;;;;;;;;24.97;60.85;95518.28;5117353;28;1041;-49
2022/09/08 09:22:21;;;;;;;;;;;;;;;25.04;61.25;95526.31;5117327;28;1044;-49
2022/09/08 09:24:56;;;;;;;;;;;;;;;25.05;58.67;95517.88;5117158;28;1052;-49
2022/09/08 09:27:41;;;;;;;;;;;;;;;25.10;61.34;95512.50;5117602;28;986;-48
2022/09/08 09:30:26;;;;;;;;;;;;;;;25.10;62.37;95507.03;5116866;28;1909;-49
2022/09/08 09:33:05;;;;;;;;;;;;;;;25.14;60.53;95519.16;5117222;28;1004;-49
2022/09/08 09:35:37;;;;;;;;;;;;;;;25.22;60.69;95508.91;5116792;28;1033;-49
2022/09/08 09:38:22;;;;;;;;;;;;;;;25.13;59.64;95506.53;5117243;28;1084;-49
2022/09/08 09:41:11;;;;;;;;;;;;;;;25.24;59.93;95501.31;5117048;28;980;-49
2022/09/08 09:44:02;;;;;;;;;;;;;;;25.26;59.99;95510.09;5105928;28;1404;-49
2022/09/08 09:46:38;;;;;;;;;;;;;;;25.36;62.02;95493.84;5117081;28;1031;-49
2022/09/08 09:49:13;;;;;;;;;;;;;;;25.57;60.18;95486.00;5116798;27;1914;-49
2022/09/08 09:51:48;;;;;;;;;;;;;;;25.65;61.78;95478.22;5116909;28;1040;-49
2022/09/08 09:54:32;;;;;;;;;;;;;;;25.73;60.13;95466.03;5106144;28;1157;-49
2022/09/08 09:57:01;;;;;;;;;;;;;;;25.76;59.73;95465.53;5096474;28;1064;-49
2022/09/08 09:59:30;;;;;;;;;;;;;;;25.83;60.10;95466.19;5096070;28;1033;-50
2022/09/08 10:02:06;;;;;;;;;;;;;;;25.83;60.85;95451.69;5096303;28;1025;-50
2022/09/08 10:04:47;;;;;;;;;;;;;;;25.95;60.92;95455.16;5095932;28;969;-49
2022/09/08 10:07:22;;;;;;;;;;;;;;;25.98;59.75;95451.13;5096274;28;964;-50
2022/09/08 10:10:07;;;;;;;;;;;;;;;26.09;58.63;95448.28;5095933;28;1910;-50
2022/09/08 10:12:53;;;;;;;;;;;;;;;26.25;59.88;95449.31;5095972;28;1036;-50
2022/09/08 10:15:25;;;;;;;;;;;;;;;26.10;58.74;95451.84;5095609;28;988;-50
2022/09/08 10:17:57;;;;;;;;;;;;;;;26.14;59.11;95449.41;5096115;28;1052;-51
2022/09/08 10:20:23;;;;;;;;;;;;;;;26.15;57.59;95440.97;5095735;28;1027;-50
2022/09/08 10:23:07;;;;;;;;;;;;;;;26.04;58.05;95436.41;5095794;28;1029;-50
2022/09/08 10:25:33;;;;;;;;;;;;;;;26.01;59.13;95432.28;5094958;28;1048;-50
2022/09/08 10:28:06;;;;;;;;;;;;;;;26.08;59.38;95430.16;5095542;28;1093;-50
2022/09/08 10:30:44;;;;;;;;;;;;;;;26.12;59.70;95419.53;5095502;28;1984;-50
2022/09/08 10:33:16;;;;;;;;;;;;;;;26.20;60.31;95424.59;5095701;28;966;-50
2022/09/08 10:35:42;;;;;;;;;;;;;;;26.30;57.55;95421.16;5095338;28;1103;-50
2022/09/08 10:38:35;;;;;;;;;;;;;;;26.45;58.82;95410.38;5095929;28;1111;-49
2022/09/08 10:41:12;;;;;;;;;;;;;;;26.48;58.54;95411.78;5095479;28;999;-50
2022/09/08 10:43:38;;;;;;;;;;;;;;;26.38;57.58;95408.94;5095355;28;984;-50
2022/09/08 10:46:11;;;;;;;;;;;;;;;26.28;56.78;95399.47;5094983;28;1196;-50
2022/09/08 10:48:55;;;;;;;;;;;;;;;26.34;57.65;95389.41;5095189;28;1045;-50
2022/09/08 10:51:39;;;;;;;;;;;;;;;26.55;58.67;95395.16;5095184;28;1052;-50
2022/09/08 10:54:08;;;;;;;;;;;;;;;26.62;58.15;95402.13;5104176;28;1217;-50
2022/09/08 10:56:35;;;;;;;;;;;;;;;26.66;58.97;95396.97;5115204;28;1882;-50
2022/09/08 10:59:04;;;;;;;;;;;;;;;26.59;58.55;95391.66;5115475;28;1041;-50
2022/09/08 11:01:30;;;;;;;;;;;;;;;26.70;59.38;95384.38;5115393;28;997;-49
2022/09/08 11:04:17;;;;;;;;;;;;;;;26.79;57.58;95379.28;5115595;28;1025;-50
2022/09/08 11:06:43;;;;;;;;;;;;;;;26.81;58.21;95382.59;5115274;28;1044;-49
2022/09/08 11:09:27;;;;;;;;;;;;;;;26.81;57.59;95379.84;5115258;28;1983;-49
2022/09/08 11:11:59;;;;;;;;;;;;;;;26.80;57.66;95376.25;5114980;28;1023;-49
2022/09/08 11:14:28;;;;;;;;;;;;;;;26.87;56.89;95379.63;5115039;28;1178;-50
2022/09/08 11:16:57;;;;;;;;;;;;;;;26.88;57.59;95375.81;5115032;28;965;-51
2022/09/08 11:19:36;;;;;;;;;;;;;;;26.88;57.69;95374.97;5114960;28;1045;-51
2022/09/08 11:22:02;;;;;;;;;;;;;;;26.92;58.66;95373.38;5114824;28;1030;-51
2022/09/08 11:24:45;;;;;;;;;;;;;;;26.99;57.08;95375.91;5114716;28;1041;-50
2022/09/08 11:27:11;;;;;;;;;;;;;;;26.96;55.10;95373.69;5114961;28;1199;-50
2022/09/08 11:29:38;;;;;;;;;;;;;;;26.93;55.44;95374.22;5114834;28;1987;-51
2022/09/08 11:32:31;;;;;;;;;;;;;;;27.01;56.47;95362.75;5114586;28;1044;-51
2022/09/08 11:34:57;;;;;;;;;;;;;;;27.12;56.83;95355.47;5114761;28;950;-51
2022/09/08 11:37:35;;;;;;;;;;;;;;;27.11;57.98;95370.25;5113603;28;1938;-50
2022/09/08 11:40:04;;;;;;;;;;;;;;;27.05;56.17;95362.00;5114734;28;1129;-50
2022/09/08 11:42:30;;;;;;;;;;;;;;;27.07;55.90;95361.72;5114477;28;1033;-50
2022/09/08 11:48:44;;;;;;;;;;;;;;;27.16;55.06;95373.06;4871886;27;1939;-51
2022/09/08 11:51:20;;;;;;;;;;;;;;;27.06;53.49;95360.06;5110548;28;1009;-50
2022/09/08 11:53:49;;;;;;;;;;;;;;;27.16;54.86;95362.06;5108105;28;1307;-50
2022/09/08 11:56:18;;;;;;;;;;;;;;;27.32;55.54;95360.31;5093941;28;1037;-50
2022/09/08 11:58:57;;;;;;;;;;;;;;;27.21;55.37;95359.38;5094109;28;1025;-51
2022/09/08 12:01:28;;;;;;;;;;;;;;;27.10;57.70;95371.34;5093816;28;1016;-50
2022/09/08 12:03:57;;;;;;;;;;;;;;;27.12;55.12;95369.19;5093816;28;1084;-51
2022/09/08 12:06:26;;;;;;;;;;;;;;;27.22;54.02;95370.13;5093818;28;1060;-51
2022/09/08 12:09:02;;;;;;;;;;;;;;;27.43;52.94;95373.88;5093922;28;1910;-51
2022/09/08 12:11:41;;;;;;;;;;;;;;;27.51;52.06;95380.81;5093498;28;1068;-51
2022/09/08 12:14:13;;;;;;;;;;;;;;;27.52;51.55;95370.66;5093786;28;977;-50
2022/09/08 12:16:48;;;;;;;;;;;;;;;27.44;51.81;95369.22;5093437;28;1877;-51
2022/09/08 12:19:41;;;;;;;;;;;;;;;27.38;53.65;95368.34;5093835;28;980;-51
2022/09/08 12:22:13;;;;;;;;;;;;;;;27.40;51.73;95362.59;5088982;28;1119;-50
2022/09/08 12:24:54;;;;;;;;;;;;;;;27.53;50.44;95366.81;5093660;28;1000;-51
2022/09/08 12:27:48;;;;;;;;;;;;;;;27.62;46.83;95366.06;5093288;28;1037;-50
2022/09/08 12:30:17;;;;;;;;;;;;;;;27.61;48.38;95374.56;5093379;28;1898;-51
2022/09/08 12:33:04;;;;;;;;;;;;;;;27.55;47.69;95367.38;5093410;28;1036;-51
2022/09/08 12:35:32;;;;;;;;;;;;;;;27.51;48.54;95358.00;5093821;28;1015;-50
2022/09/08 12:38:01;;;;;;;;;;;;;;;27.43;47.45;95359.31;5093215;28;1959;-50
2022/09/08 12:40:30;;;;;;;;;;;;;;;27.39;47.67;95355.44;5093757;28;953;-51
2022/09/08 12:43:10;;;;;;;;;;;;;;;27.35;49.57;95357.06;5093145;28;1843;-51
2022/09/08 12:45:45;;;;;;;;;;;;;;;27.35;50.17;95357.88;5093336;28;1032;-51
2022/09/08 12:48:23;;;;;;;;;;;;;;;27.44;48.16;95359.06;5094987;28;1092;-51
2022/09/08 12:51:09;;;;;;;;;;;;;;;27.59;49.66;95354.78;5097701;28;1973;-51
2022/09/08 12:53:54;;;;;;;;;;;;;;;27.63;51.46;95356.72;5101767;28;1154;-50
2022/09/08 12:56:26;;;;;;;;;;;;;;;27.65;50.74;95345.47;5117682;28;1056;-51
2022/09/08 12:59:04;;;;;;;;;;;;;;;27.74;49.20;95351.31;5117862;28;1018;-51
2022/09/08 13:01:41;;;;;;;;;;;;;;;27.69;49.43;95343.84;5117787;28;1086;-51
2022/09/08 13:04:26;;;;;;;;;;;;;;;27.69;48.54;95335.63;5117759;28;1040;-51
2022/09/08 13:07:03;;;;;;;;;;;;;;;27.71;48.23;95340.84;5117414;28;1021;-50
2022/09/08 13:09:33;;;;;;;;;;;;;;;27.79;47.03;95343.09;5117467;28;1968;-51
2022/09/08 13:12:10;;;;;;;;;;;;;;;27.81;48.05;95336.25;5117353;28;1020;-50
2022/09/08 13:14:39;;;;;;;;;;;;;;;27.77;46.90;95335.09;5117567;28;1186;-51
2022/09/08 13:17:11;;;;;;;;;;;;;;;27.74;48.57;95332.09;5117209;28;1033;-51
2022/09/08 13:19:46;;;;;;;;;;;;;;;27.70;48.44;95336.44;5117507;28;1012;-51
2022/09/08 13:22:18;;;;;;;;;;;;;;;27.80;47.67;95333.78;5117117;28;1028;-51
2022/09/08 13:24:50;;;;;;;;;;;;;;;27.73;48.37;95331.25;5117354;28;1127;-51